sensor_id;sensor_type;location;lat;lon;timestamp;temperature;humidity
3860;DHT22;1945;52.036;8.614;2023-09-19T00:00:56;15.80;99.90
3860;DHT22;1945;52.036;8.614;2023-09-19T00:03:23;15.80;99.90
3860;DHT22;1945;52.036;8.614;2023-09-19T00:05:51;15.80;99.90
3860;DHT22;1945;52.036;8.614;2023-09-19T00:08:18;15.80;99.90
3860;DHT22;1945;52.036;8.614;2023-09-19T00:10:48;15.80;99.90
3860;DHT22;1945;52.036;8.614;2023-09-19T00:13:15;15.70;99.90
3860;DHT22;1945;52.036;8.614;2023-09-19T00:15:43;15.70;99.90
3860;DHT22;1945;52.036;8.614;2023-09-19T00:18:14;15.70;99.90
3860;DHT22;1945;52.036;8.614;2023-09-19T00:20:41;15.70;99.90
3860;DHT22;1945;52.036;8.614;2023-09-19T00:23:09;15.70;99.90
3860;DHT22;1945;52.036;8.614;2023-09-19T00:25:37;15.70;99.90
3860;DHT22;1945;52.036;8.614;2023-09-19T00:28:04;15.70;99.90
3860;DHT22;1945;52.036;8.614;2023-09-19T00:30:32;15.70;99.90
3860;DHT22;1945;52.036;8.614;2023-09-19T00:32:59;15.70;99.90
3860;DHT22;1945;52.036;8.614;2023-09-19T00:35:27;15.70;99.90
3860;DHT22;1945;52.036;8.614;2023-09-19T00:37:54;15.70;99.90
3860;DHT22;1945;52.036;8.614;2023-09-19T00:40:23;15.70;99.90
3860;DHT22;1945;52.036;8.614;2023-09-19T00:42:51;15.80;99.90
3860;DHT22;1945;52.036;8.614;2023-09-19T00:45:18;15.80;99.90
3860;DHT22;1945;52.036;8.614;2023-09-19T00:47:48;15.80;99.90
3860;DHT22;1945;52.036;8.614;2023-09-19T00:50:17;15.80;99.90
3860;DHT22;1945;52.036;8.614;2023-09-19T00:52:46;15.70;99.90
3860;DHT22;1945;52.036;8.614;2023-09-19T00:55:16;15.70;99.90
3860;DHT22;1945;52.036;8.614;2023-09-19T00:57:46;15.70;99.90
3860;DHT22;1945;52.036;8.614;2023-09-19T01:00:15;15.70;99.90
3860;DHT22;1945;52.036;8.614;2023-09-19T01:02:45;15.70;99.90
3860;DHT22;1945;52.036;8.614;2023-09-19T01:05:12;15.70;99.90
3860;DHT22;1945;52.036;8.614;2023-09-19T01:07:40;15.70;99.90
3860;DHT22;1945;52.036;8.614;2023-09-19T01:10:08;15.80;99.90
3860;DHT22;1945;52.036;8.614;2023-09-19T01:12:52;15.80;99.90
3860;DHT22;1945;52.036;8.614;2023-09-19T01:15:28;15.80;99.90
3860;DHT22;1945;52.036;8.614;2023-09-19T01:18:01;15.70;99.90
3860;DHT22;1945;52.036;8.614;2023-09-19T01:20:37;15.70;99.90
3860;DHT22;1945;52.036;8.614;2023-09-19T01:23:13;15.70;99.90
3860;DHT22;1945;52.036;8.614;2023-09-19T01:26:06;15.70;99.90
3860;DHT22;1945;52.036;8.614;2023-09-19T01:28:45;15.70;99.90
3860;DHT22;1945;52.036;8.614;2023-09-19T01:31:28;15.70;99.90
3860;DHT22;1945;52.036;8.614;2023-09-19T01:34:03;15.70;99.90
3860;DHT22;1945;52.036;8.614;2023-09-19T01:36:32;15.80;99.90
3860;DHT22;1945;52.036;8.614;2023-09-19T01:39:13;15.80;99.90
3860;DHT22;1945;52.036;8.614;2023-09-19T01:41:56;15.90;99.90
3860;DHT22;1945;52.036;8.614;2023-09-19T01:44:40;15.80;99.90
3860;DHT22;1945;52.036;8.614;2023-09-19T01:47:18;15.80;99.90
3860;DHT22;1945;52.036;8.614;2023-09-19T01:49:54;15.90;99.90
3860;DHT22;1945;52.036;8.614;2023-09-19T01:52:28;15.80;99.90
3860;DHT22;1945;52.036;8.614;2023-09-19T01:55:02;15.80;99.90
3860;DHT22;1945;52.036;8.614;2023-09-19T01:57:35;15.80;99.90
3860;DHT22;1945;52.036;8.614;2023-09-19T02:00:09;15.80;99.90
3860;DHT22;1945;52.036;8.614;2023-09-19T02:02:40;15.80;99.90
3860;DHT22;1945;52.036;8.614;2023-09-19T02:05:07;15.80;99.90
3860;DHT22;1945;52.036;8.614;2023-09-19T02:07:34;15.70;99.90
3860;DHT22;1945;52.036;8.614;2023-09-19T02:10:04;15.70;99.90
3860;DHT22;1945;52.036;8.614;2023-09-19T02:12:32;15.70;99.90
3860;DHT22;1945;52.036;8.614;2023-09-19T02:15:00;15.70;99.90
3860;DHT22;1945;52.036;8.614;2023-09-19T02:17:27;15.70;99.90
3860;DHT22;1945;52.036;8.614;2023-09-19T02:19:55;15.70;99.90
3860;DHT22;1945;52.036;8.614;2023-09-19T02:22:22;15.60;99.90
3860;DHT22;1945;52.036;8.614;2023-09-19T02:24:50;15.60;99.90
3860;DHT22;1945;52.036;8.614;2023-09-19T02:27:18;15.70;99.90
3860;DHT22;1945;52.036;8.614;2023-09-19T02:29:45;15.60;99.90
3860;DHT22;1945;52.036;8.614;2023-09-19T02:32:17;15.60;99.90
3860;DHT22;1945;52.036;8.614;2023-09-19T02:34:44;15.50;99.90
3860;DHT22;1945;52.036;8.614;2023-09-19T02:37:12;15.60;99.90
3860;DHT22;1945;52.036;8.614;2023-09-19T02:39:41;15.50;99.90
3860;DHT22;1945;52.036;8.614;2023-09-19T02:42:08;15.60;99.90
3860;DHT22;1945;52.036;8.614;2023-09-19T02:44:35;15.60;99.90
3860;DHT22;1945;52.036;8.614;2023-09-19T02:47:03;15.60;99.90
3860;DHT22;1945;52.036;8.614;2023-09-19T02:49:30;15.60;99.90
3860;DHT22;1945;52.036;8.614;2023-09-19T02:51:57;15.50;99.90
3860;DHT22;1945;52.036;8.614;2023-09-19T02:54:26;15.50;99.90
3860;DHT22;1945;52.036;8.614;2023-09-19T02:56:53;15.40;99.90
3860;DHT22;1945;52.036;8.614;2023-09-19T02:59:20;15.40;99.90
3860;DHT22;1945;52.036;8.614;2023-09-19T03:01:47;15.40;99.90
3860;DHT22;1945;52.036;8.614;2023-09-19T03:04:14;15.40;99.90
3860;DHT22;1945;52.036;8.614;2023-09-19T03:06:44;15.40;99.90
3860;DHT22;1945;52.036;8.614;2023-09-19T03:09:11;15.30;99.90
3860;DHT22;1945;52.036;8.614;2023-09-19T03:11:40;15.30;99.90
3860;DHT22;1945;52.036;8.614;2023-09-19T03:14:07;15.30;99.90
3860;DHT22;1945;52.036;8.614;2023-09-19T03:16:34;15.30;99.90
3860;DHT22;1945;52.036;8.614;2023-09-19T03:19:03;15.30;99.90
3860;DHT22;1945;52.036;8.614;2023-09-19T03:21:30;15.20;99.90
3860;DHT22;1945;52.036;8.614;2023-09-19T03:23:57;15.20;99.90
3860;DHT22;1945;52.036;8.614;2023-09-19T03:26:24;15.20;99.90
3860;DHT22;1945;52.036;8.614;2023-09-19T03:28:53;15.20;99.90
3860;DHT22;1945;52.036;8.614;2023-09-19T03:31:20;15.20;99.90
3860;DHT22;1945;52.036;8.614;2023-09-19T03:33:47;15.20;99.90
3860;DHT22;1945;52.036;8.614;2023-09-19T03:36:14;15.20;99.90
3860;DHT22;1945;52.036;8.614;2023-09-19T03:38:40;15.10;99.90
3860;DHT22;1945;52.036;8.614;2023-09-19T03:41:07;15.10;99.90
3860;DHT22;1945;52.036;8.614;2023-09-19T03:43:34;15.10;99.90
3860;DHT22;1945;52.036;8.614;2023-09-19T03:46:03;15.10;99.90
3860;DHT22;1945;52.036;8.614;2023-09-19T03:48:30;15.10;99.90
3860;DHT22;1945;52.036;8.614;2023-09-19T03:50:57;15.10;99.90
3860;DHT22;1945;52.036;8.614;2023-09-19T03:53:24;15.00;99.90
3860;DHT22;1945;52.036;8.614;2023-09-19T03:55:51;15.00;99.90
3860;DHT22;1945;52.036;8.614;2023-09-19T03:58:17;15.00;99.90
3860;DHT22;1945;52.036;8.614;2023-09-19T04:00:44;14.90;99.90
3860;DHT22;1945;52.036;8.614;2023-09-19T04:03:12;14.90;99.90
3860;DHT22;1945;52.036;8.614;2023-09-19T04:05:45;14.90;99.90
3860;DHT22;1945;52.036;8.614;2023-09-19T04:08:12;14.90;99.90
3860;DHT22;1945;52.036;8.614;2023-09-19T04:10:39;14.90;99.90
3860;DHT22;1945;52.036;8.614;2023-09-19T04:13:06;14.90;99.90
3860;DHT22;1945;52.036;8.614;2023-09-19T04:15:33;14.80;99.90
3860;DHT22;1945;52.036;8.614;2023-09-19T04:17:59;14.70;99.90
3860;DHT22;1945;52.036;8.614;2023-09-19T04:20:30;14.70;99.90
3860;DHT22;1945;52.036;8.614;2023-09-19T04:23:00;14.70;99.90
3860;DHT22;1945;52.036;8.614;2023-09-19T04:25:26;14.60;99.90
3860;DHT22;1945;52.036;8.614;2023-09-19T04:27:53;14.60;99.90
3860;DHT22;1945;52.036;8.614;2023-09-19T04:30:23;14.50;99.90
3860;DHT22;1945;52.036;8.614;2023-09-19T04:32:50;14.50;99.90
3860;DHT22;1945;52.036;8.614;2023-09-19T04:35:17;14.50;99.90
3860;DHT22;1945;52.036;8.614;2023-09-19T04:37:45;14.50;99.90
3860;DHT22;1945;52.036;8.614;2023-09-19T04:40:13;14.50;99.90
3860;DHT22;1945;52.036;8.614;2023-09-19T04:42:43;14.40;99.90
3860;DHT22;1945;52.036;8.614;2023-09-19T04:45:10;14.40;99.90
3860;DHT22;1945;52.036;8.614;2023-09-19T04:47:37;14.30;99.90
3860;DHT22;1945;52.036;8.614;2023-09-19T04:50:09;14.30;99.90
3860;DHT22;1945;52.036;8.614;2023-09-19T04:52:40;14.30;99.90
3860;DHT22;1945;52.036;8.614;2023-09-19T04:55:11;14.20;99.90
3860;DHT22;1945;52.036;8.614;2023-09-19T04:57:43;14.20;99.90
3860;DHT22;1945;52.036;8.614;2023-09-19T05:00:12;14.20;99.90
3860;DHT22;1945;52.036;8.614;2023-09-19T05:02:40;14.20;99.90
3860;DHT22;1945;52.036;8.614;2023-09-19T05:05:07;14.20;99.90
3860;DHT22;1945;52.036;8.614;2023-09-19T05:07:34;14.30;99.90
3860;DHT22;1945;52.036;8.614;2023-09-19T05:10:01;14.30;99.90
3860;DHT22;1945;52.036;8.614;2023-09-19T05:12:32;14.30;99.90
3860;DHT22;1945;52.036;8.614;2023-09-19T05:14:59;14.20;99.90
3860;DHT22;1945;52.036;8.614;2023-09-19T05:17:26;14.10;99.90
3860;DHT22;1945;52.036;8.614;2023-09-19T05:19:53;14.10;99.90
3860;DHT22;1945;52.036;8.614;2023-09-19T05:22:20;14.00;99.90
3860;DHT22;1945;52.036;8.614;2023-09-19T05:24:47;14.00;99.90
3860;DHT22;1945;52.036;8.614;2023-09-19T05:27:13;14.00;99.90
3860;DHT22;1945;52.036;8.614;2023-09-19T05:29:43;14.00;99.90
3860;DHT22;1945;52.036;8.614;2023-09-19T05:32:10;14.00;82.70
3860;DHT22;1945;52.036;8.614;2023-09-19T05:34:38;14.00;99.90
3860;DHT22;1945;52.036;8.614;2023-09-19T05:37:05;14.00;99.90
3860;DHT22;1945;52.036;8.614;2023-09-19T05:39:33;13.90;99.90
3860;DHT22;1945;52.036;8.614;2023-09-19T05:42:00;14.00;99.90
3860;DHT22;1945;52.036;8.614;2023-09-19T05:44:27;14.20;94.80
3860;DHT22;1945;52.036;8.614;2023-09-19T05:46:55;14.30;1.00
3860;DHT22;1945;52.036;8.614;2023-09-19T05:49:23;14.50;1.00
3860;DHT22;1945;52.036;8.614;2023-09-19T05:51:51;14.60;1.00
3860;DHT22;1945;52.036;8.614;2023-09-19T05:54:19;14.70;1.00
3860;DHT22;1945;52.036;8.614;2023-09-19T05:56:46;14.80;1.00
3860;DHT22;1945;52.036;8.614;2023-09-19T05:59:18;15.00;1.00
3860;DHT22;1945;52.036;8.614;2023-09-19T06:01:45;15.10;1.00
3860;DHT22;1945;52.036;8.614;2023-09-19T06:04:14;15.20;1.00
3860;DHT22;1945;52.036;8.614;2023-09-19T06:06:40;15.30;1.00
3860;DHT22;1945;52.036;8.614;2023-09-19T06:09:08;15.40;1.00
3860;DHT22;1945;52.036;8.614;2023-09-19T06:11:35;15.50;99.90
3860;DHT22;1945;52.036;8.614;2023-09-19T06:14:01;15.40;99.90
3860;DHT22;1945;52.036;8.614;2023-09-19T06:16:28;15.70;99.90
3860;DHT22;1945;52.036;8.614;2023-09-19T06:18:55;15.70;99.90
3860;DHT22;1945;52.036;8.614;2023-09-19T06:21:23;15.90;99.90
3860;DHT22;1945;52.036;8.614;2023-09-19T06:23:50;16.00;99.90
3860;DHT22;1945;52.036;8.614;2023-09-19T06:26:17;16.00;40.40
3860;DHT22;1945;52.036;8.614;2023-09-19T06:28:44;16.20;99.90
3860;DHT22;1945;52.036;8.614;2023-09-19T06:31:11;16.00;5.50
3860;DHT22;1945;52.036;8.614;2023-09-19T06:33:38;15.90;84.20
3860;DHT22;1945;52.036;8.614;2023-09-19T06:36:05;16.50;1.00
3860;DHT22;1945;52.036;8.614;2023-09-19T06:38:34;16.60;1.00
3860;DHT22;1945;52.036;8.614;2023-09-19T06:41:01;16.60;1.00
3860;DHT22;1945;52.036;8.614;2023-09-19T06:43:30;16.90;1.00
3860;DHT22;1945;52.036;8.614;2023-09-19T06:45:58;17.10;1.00
3860;DHT22;1945;52.036;8.614;2023-09-19T06:48:25;17.10;1.00
3860;DHT22;1945;52.036;8.614;2023-09-19T06:50:53;17.10;1.00
3860;DHT22;1945;52.036;8.614;2023-09-19T06:53:20;16.80;1.00
3860;DHT22;1945;52.036;8.614;2023-09-19T06:55:50;16.80;1.00
3860;DHT22;1945;52.036;8.614;2023-09-19T06:58:17;16.60;1.00
3860;DHT22;1945;52.036;8.614;2023-09-19T07:00:44;16.90;1.00
3860;DHT22;1945;52.036;8.614;2023-09-19T07:03:13;16.60;1.00
3860;DHT22;1945;52.036;8.614;2023-09-19T07:05:42;16.40;1.00
3860;DHT22;1945;52.036;8.614;2023-09-19T07:08:09;16.50;1.00
3860;DHT22;1945;52.036;8.614;2023-09-19T07:10:38;16.40;1.00
3860;DHT22;1945;52.036;8.614;2023-09-19T07:13:07;16.40;1.00
3860;DHT22;1945;52.036;8.614;2023-09-19T07:15:37;16.40;1.00
3860;DHT22;1945;52.036;8.614;2023-09-19T07:18:05;16.20;1.00
3860;DHT22;1945;52.036;8.614;2023-09-19T07:20:32;16.30;1.00
3860;DHT22;1945;52.036;8.614;2023-09-19T07:23:00;16.20;1.00
3860;DHT22;1945;52.036;8.614;2023-09-19T07:25:27;16.20;1.00
3860;DHT22;1945;52.036;8.614;2023-09-19T07:27:55;16.20;1.00
3860;DHT22;1945;52.036;8.614;2023-09-19T07:30:23;16.30;1.00
3860;DHT22;1945;52.036;8.614;2023-09-19T07:32:50;16.50;1.00
3860;DHT22;1945;52.036;8.614;2023-09-19T07:35:18;16.60;1.00
3860;DHT22;1945;52.036;8.614;2023-09-19T07:37:45;16.80;1.00
3860;DHT22;1945;52.036;8.614;2023-09-19T07:40:14;16.90;1.00
3860;DHT22;1945;52.036;8.614;2023-09-19T07:42:41;17.00;1.00
3860;DHT22;1945;52.036;8.614;2023-09-19T07:45:10;17.00;1.00
3860;DHT22;1945;52.036;8.614;2023-09-19T07:47:44;17.40;1.00
3860;DHT22;1945;52.036;8.614;2023-09-19T07:50:11;17.70;1.00
3860;DHT22;1945;52.036;8.614;2023-09-19T07:52:37;17.70;1.00
3860;DHT22;1945;52.036;8.614;2023-09-19T07:55:06;17.70;1.00
3860;DHT22;1945;52.036;8.614;2023-09-19T07:57:34;17.50;1.00
3860;DHT22;1945;52.036;8.614;2023-09-19T08:00:01;17.40;1.00
3860;DHT22;1945;52.036;8.614;2023-09-19T08:02:30;17.40;1.00
3860;DHT22;1945;52.036;8.614;2023-09-19T08:05:01;17.40;1.00
3860;DHT22;1945;52.036;8.614;2023-09-19T08:07:31;17.20;1.00
3860;DHT22;1945;52.036;8.614;2023-09-19T08:09:58;17.40;1.00
3860;DHT22;1945;52.036;8.614;2023-09-19T08:12:25;17.50;1.00
3860;DHT22;1945;52.036;8.614;2023-09-19T08:14:52;17.20;1.00
3860;DHT22;1945;52.036;8.614;2023-09-19T08:17:20;17.10;1.00
3860;DHT22;1945;52.036;8.614;2023-09-19T08:19:48;17.20;1.00
3860;DHT22;1945;52.036;8.614;2023-09-19T08:22:19;17.40;1.00
3860;DHT22;1945;52.036;8.614;2023-09-19T08:24:47;17.20;1.00
3860;DHT22;1945;52.036;8.614;2023-09-19T08:27:14;17.20;1.00
3860;DHT22;1945;52.036;8.614;2023-09-19T08:29:43;17.10;1.00
3860;DHT22;1945;52.036;8.614;2023-09-19T08:32:11;17.30;1.00
3860;DHT22;1945;52.036;8.614;2023-09-19T08:34:38;17.50;1.00
3860;DHT22;1945;52.036;8.614;2023-09-19T08:37:05;17.50;1.00
3860;DHT22;1945;52.036;8.614;2023-09-19T08:39:34;17.70;1.00
3860;DHT22;1945;52.036;8.614;2023-09-19T08:42:02;17.40;99.90
3860;DHT22;1945;52.036;8.614;2023-09-19T08:44:30;17.50;1.00
3860;DHT22;1945;52.036;8.614;2023-09-19T08:47:08;17.50;1.00
3860;DHT22;1945;52.036;8.614;2023-09-19T08:49:40;17.40;1.00
3860;DHT22;1945;52.036;8.614;2023-09-19T08:52:19;17.60;99.90
3860;DHT22;1945;52.036;8.614;2023-09-19T08:54:52;17.60;1.00
3860;DHT22;1945;52.036;8.614;2023-09-19T08:57:19;17.60;1.00
3860;DHT22;1945;52.036;8.614;2023-09-19T08:59:48;17.60;1.00
3860;DHT22;1945;52.036;8.614;2023-09-19T09:02:16;17.40;99.90
3860;DHT22;1945;52.036;8.614;2023-09-19T09:04:45;17.40;1.00
3860;DHT22;1945;52.036;8.614;2023-09-19T09:07:13;17.50;1.00
3860;DHT22;1945;52.036;8.614;2023-09-19T09:09:40;17.50;1.00
3860;DHT22;1945;52.036;8.614;2023-09-19T09:12:11;17.60;1.00
3860;DHT22;1945;52.036;8.614;2023-09-19T09:14:39;17.60;1.00
3860;DHT22;1945;52.036;8.614;2023-09-19T09:17:07;17.70;1.00
3860;DHT22;1945;52.036;8.614;2023-09-19T09:19:34;17.80;1.00
3860;DHT22;1945;52.036;8.614;2023-09-19T09:22:08;18.00;1.00
3860;DHT22;1945;52.036;8.614;2023-09-19T09:24:35;17.90;99.90
3860;DHT22;1945;52.036;8.614;2023-09-19T09:27:05;17.80;1.00
3860;DHT22;1945;52.036;8.614;2023-09-19T09:29:44;17.70;1.00
3860;DHT22;1945;52.036;8.614;2023-09-19T09:32:21;17.60;99.90
3860;DHT22;1945;52.036;8.614;2023-09-19T09:34:50;17.90;1.00
3860;DHT22;1945;52.036;8.614;2023-09-19T09:37:18;17.90;1.00
3860;DHT22;1945;52.036;8.614;2023-09-19T09:39:50;17.90;99.90
3860;DHT22;1945;52.036;8.614;2023-09-19T09:42:34;18.00;99.90
3860;DHT22;1945;52.036;8.614;2023-09-19T09:45:19;18.10;99.90
3860;DHT22;1945;52.036;8.614;2023-09-19T09:47:54;18.30;99.90
3860;DHT22;1945;52.036;8.614;2023-09-19T09:50:29;18.60;1.00
3860;DHT22;1945;52.036;8.614;2023-09-19T09:53:20;18.40;99.90
3860;DHT22;1945;52.036;8.614;2023-09-19T09:55:58;18.30;99.90
3860;DHT22;1945;52.036;8.614;2023-09-19T09:58:25;18.50;92.50
3860;DHT22;1945;52.036;8.614;2023-09-19T10:00:56;18.50;99.60
3860;DHT22;1945;52.036;8.614;2023-09-19T10:03:31;18.40;90.80
3860;DHT22;1945;52.036;8.614;2023-09-19T10:06:00;18.50;99.90
3860;DHT22;1945;52.036;8.614;2023-09-19T10:08:36;18.40;99.90
3860;DHT22;1945;52.036;8.614;2023-09-19T10:11:15;18.50;99.90
3860;DHT22;1945;52.036;8.614;2023-09-19T10:13:44;18.60;1.00
3860;DHT22;1945;52.036;8.614;2023-09-19T10:16:16;18.50;99.90
3860;DHT22;1945;52.036;8.614;2023-09-19T10:18:48;18.60;1.00
3860;DHT22;1945;52.036;8.614;2023-09-19T10:21:18;18.70;1.00
3860;DHT22;1945;52.036;8.614;2023-09-19T10:23:51;18.80;99.90
3860;DHT22;1945;52.036;8.614;2023-09-19T10:26:22;18.70;1.00
3860;DHT22;1945;52.036;8.614;2023-09-19T10:28:50;18.60;99.90
3860;DHT22;1945;52.036;8.614;2023-09-19T10:31:21;18.70;1.00
3860;DHT22;1945;52.036;8.614;2023-09-19T10:33:49;18.80;1.00
3860;DHT22;1945;52.036;8.614;2023-09-19T10:36:16;18.70;1.00
3860;DHT22;1945;52.036;8.614;2023-09-19T10:38:45;18.90;1.00
3860;DHT22;1945;52.036;8.614;2023-09-19T10:41:16;18.70;1.00
3860;DHT22;1945;52.036;8.614;2023-09-19T10:43:48;18.90;1.00
3860;DHT22;1945;52.036;8.614;2023-09-19T10:46:25;18.80;1.00
3860;DHT22;1945;52.036;8.614;2023-09-19T10:48:52;18.80;1.00
3860;DHT22;1945;52.036;8.614;2023-09-19T10:51:22;18.90;1.00
3860;DHT22;1945;52.036;8.614;2023-09-19T10:53:51;18.80;1.00
3860;DHT22;1945;52.036;8.614;2023-09-19T10:56:23;18.70;22.30
3860;DHT22;1945;52.036;8.614;2023-09-19T10:59:05;18.40;1.00
3860;DHT22;1945;52.036;8.614;2023-09-19T11:01:42;18.60;1.00
3860;DHT22;1945;52.036;8.614;2023-09-19T11:04:31;18.80;1.00
3860;DHT22;1945;52.036;8.614;2023-09-19T11:07:00;18.60;1.00
3860;DHT22;1945;52.036;8.614;2023-09-19T11:09:47;18.90;1.00
3860;DHT22;1945;52.036;8.614;2023-09-19T11:21:53;18.90;1.00
3860;DHT22;1945;52.036;8.614;2023-09-19T11:24:32;19.00;1.00
3860;DHT22;1945;52.036;8.614;2023-09-19T11:27:12;19.10;1.00
3860;DHT22;1945;52.036;8.614;2023-09-19T11:29:40;18.90;1.00
3860;DHT22;1945;52.036;8.614;2023-09-19T11:32:06;19.00;1.00
3860;DHT22;1945;52.036;8.614;2023-09-19T11:34:46;18.70;1.00
3860;DHT22;1945;52.036;8.614;2023-09-19T11:40:34;19.40;1.00
3860;DHT22;1945;52.036;8.614;2023-09-19T11:43:28;19.50;1.00
3860;DHT22;1945;52.036;8.614;2023-09-19T11:46:06;19.80;99.90
3860;DHT22;1945;52.036;8.614;2023-09-19T11:48:33;20.30;1.00
3860;DHT22;1945;52.036;8.614;2023-09-19T11:51:11;20.00;99.90
3860;DHT22;1945;52.036;8.614;2023-09-19T11:53:45;19.90;99.90
3860;DHT22;1945;52.036;8.614;2023-09-19T11:56:16;20.10;99.90
3860;DHT22;1945;52.036;8.614;2023-09-19T11:58:43;20.10;99.90
3860;DHT22;1945;52.036;8.614;2023-09-19T12:01:18;20.20;99.90
3860;DHT22;1945;52.036;8.614;2023-09-19T12:03:50;20.00;88.70
3860;DHT22;1945;52.036;8.614;2023-09-19T12:06:19;20.10;99.90
3860;DHT22;1945;52.036;8.614;2023-09-19T12:08:47;19.80;99.90
3860;DHT22;1945;52.036;8.614;2023-09-19T12:11:17;19.50;99.90
3860;DHT22;1945;52.036;8.614;2023-09-19T12:13:46;19.70;99.90
3860;DHT22;1945;52.036;8.614;2023-09-19T12:16:15;19.60;99.90
3860;DHT22;1945;52.036;8.614;2023-09-19T12:18:43;19.50;99.90
3860;DHT22;1945;52.036;8.614;2023-09-19T12:21:25;19.70;99.90
3860;DHT22;1945;52.036;8.614;2023-09-19T12:24:12;19.60;99.90
3860;DHT22;1945;52.036;8.614;2023-09-19T12:26:42;19.70;99.90
3860;DHT22;1945;52.036;8.614;2023-09-19T12:29:14;19.70;99.90
3860;DHT22;1945;52.036;8.614;2023-09-19T12:31:52;19.50;99.90
3860;DHT22;1945;52.036;8.614;2023-09-19T12:34:23;19.80;99.90
3860;DHT22;1945;52.036;8.614;2023-09-19T12:37:07;19.90;99.90
3860;DHT22;1945;52.036;8.614;2023-09-19T12:39:41;19.60;99.90
3860;DHT22;1945;52.036;8.614;2023-09-19T12:42:11;19.60;99.90
3860;DHT22;1945;52.036;8.614;2023-09-19T12:44:41;19.70;99.90
3860;DHT22;1945;52.036;8.614;2023-09-19T12:47:10;19.70;99.90
3860;DHT22;1945;52.036;8.614;2023-09-19T12:50:11;19.70;99.90
3860;DHT22;1945;52.036;8.614;2023-09-19T12:52:46;20.00;99.90
3860;DHT22;1945;52.036;8.614;2023-09-19T12:55:24;20.20;99.90
3860;DHT22;1945;52.036;8.614;2023-09-19T12:58:12;20.20;99.90
3860;DHT22;1945;52.036;8.614;2023-09-19T13:00:41;20.10;99.90
3860;DHT22;1945;52.036;8.614;2023-09-19T13:03:18;19.80;65.30
3860;DHT22;1945;52.036;8.614;2023-09-19T13:05:52;20.00;99.90
3860;DHT22;1945;52.036;8.614;2023-09-19T13:08:21;20.00;99.90
3860;DHT22;1945;52.036;8.614;2023-09-19T13:11:06;20.10;99.90
3860;DHT22;1945;52.036;8.614;2023-09-19T13:13:37;20.10;1.00
3860;DHT22;1945;52.036;8.614;2023-09-19T13:16:04;20.00;99.90
3860;DHT22;1945;52.036;8.614;2023-09-19T13:18:42;20.00;99.90
3860;DHT22;1945;52.036;8.614;2023-09-19T13:21:11;20.00;95.40
3860;DHT22;1945;52.036;8.614;2023-09-19T13:23:42;20.20;9.60
3860;DHT22;1945;52.036;8.614;2023-09-19T13:26:09;19.80;1.00
3860;DHT22;1945;52.036;8.614;2023-09-19T13:28:37;19.90;99.90
3860;DHT22;1945;52.036;8.614;2023-09-19T13:31:04;20.00;35.90
3860;DHT22;1945;52.036;8.614;2023-09-19T13:33:32;20.20;95.30
3860;DHT22;1945;52.036;8.614;2023-09-19T13:35:59;20.00;1.00
3860;DHT22;1945;52.036;8.614;2023-09-19T13:38:25;20.00;99.90
3860;DHT22;1945;52.036;8.614;2023-09-19T13:40:52;19.80;99.90
3860;DHT22;1945;52.036;8.614;2023-09-19T13:43:19;19.90;1.00
3860;DHT22;1945;52.036;8.614;2023-09-19T13:45:49;20.00;37.90
3860;DHT22;1945;52.036;8.614;2023-09-19T13:48:15;20.10;99.90
3860;DHT22;1945;52.036;8.614;2023-09-19T13:50:48;19.90;99.90
3860;DHT22;1945;52.036;8.614;2023-09-19T13:53:14;20.10;99.90
3860;DHT22;1945;52.036;8.614;2023-09-19T13:55:42;20.10;97.10
3860;DHT22;1945;52.036;8.614;2023-09-19T13:58:09;20.20;4.90
3860;DHT22;1945;52.036;8.614;2023-09-19T14:00:37;20.40;54.40
3860;DHT22;1945;52.036;8.614;2023-09-19T14:03:05;20.20;80.90
3860;DHT22;1945;52.036;8.614;2023-09-19T14:05:32;20.30;65.30
3860;DHT22;1945;52.036;8.614;2023-09-19T14:07:59;20.10;99.90
3860;DHT22;1945;52.036;8.614;2023-09-19T14:10:26;19.90;99.90
3860;DHT22;1945;52.036;8.614;2023-09-19T14:12:55;20.10;1.00
3860;DHT22;1945;52.036;8.614;2023-09-19T14:15:22;20.30;99.90
3860;DHT22;1945;52.036;8.614;2023-09-19T14:17:55;20.20;99.90
3860;DHT22;1945;52.036;8.614;2023-09-19T14:20:23;20.10;19.20
3860;DHT22;1945;52.036;8.614;2023-09-19T14:22:52;20.10;98.20
3860;DHT22;1945;52.036;8.614;2023-09-19T14:25:18;20.10;43.80
3860;DHT22;1945;52.036;8.614;2023-09-19T14:27:46;20.10;99.90
3860;DHT22;1945;52.036;8.614;2023-09-19T14:30:13;20.00;99.90
3860;DHT22;1945;52.036;8.614;2023-09-19T14:32:40;20.00;99.90
3860;DHT22;1945;52.036;8.614;2023-09-19T14:35:10;20.20;99.90
3860;DHT22;1945;52.036;8.614;2023-09-19T14:37:41;20.10;6.30
3860;DHT22;1945;52.036;8.614;2023-09-19T14:40:09;20.30;39.40
3860;DHT22;1945;52.036;8.614;2023-09-19T14:42:38;20.30;99.90
3860;DHT22;1945;52.036;8.614;2023-09-19T14:45:06;20.10;99.90
3860;DHT22;1945;52.036;8.614;2023-09-19T14:47:35;20.10;99.90
3860;DHT22;1945;52.036;8.614;2023-09-19T14:50:03;20.00;99.90
3860;DHT22;1945;52.036;8.614;2023-09-19T14:52:32;20.10;99.90
3860;DHT22;1945;52.036;8.614;2023-09-19T14:55:00;20.10;99.90
3860;DHT22;1945;52.036;8.614;2023-09-19T14:57:27;20.10;99.90
3860;DHT22;1945;52.036;8.614;2023-09-19T14:59:54;20.10;99.90
3860;DHT22;1945;52.036;8.614;2023-09-19T15:02:21;20.10;99.90
3860;DHT22;1945;52.036;8.614;2023-09-19T15:04:48;20.10;99.90
3860;DHT22;1945;52.036;8.614;2023-09-19T15:07:16;20.00;99.90
3860;DHT22;1945;52.036;8.614;2023-09-19T15:09:43;20.00;99.90
3860;DHT22;1945;52.036;8.614;2023-09-19T15:12:15;19.90;99.90
3860;DHT22;1945;52.036;8.614;2023-09-19T15:14:42;19.80;99.90
3860;DHT22;1945;52.036;8.614;2023-09-19T15:17:09;19.80;99.90
3860;DHT22;1945;52.036;8.614;2023-09-19T15:19:35;19.80;99.90
3860;DHT22;1945;52.036;8.614;2023-09-19T15:22:13;19.70;99.90
3860;DHT22;1945;52.036;8.614;2023-09-19T15:24:40;19.70;99.90
3860;DHT22;1945;52.036;8.614;2023-09-19T15:27:06;19.70;99.90
3860;DHT22;1945;52.036;8.614;2023-09-19T15:29:34;19.70;99.90
3860;DHT22;1945;52.036;8.614;2023-09-19T15:32:02;19.60;99.90
3860;DHT22;1945;52.036;8.614;2023-09-19T15:34:30;19.60;1.00
3860;DHT22;1945;52.036;8.614;2023-09-19T15:36:57;19.60;99.90
3860;DHT22;1945;52.036;8.614;2023-09-19T15:39:24;19.50;99.90
3860;DHT22;1945;52.036;8.614;2023-09-19T15:41:51;19.60;1.00
3860;DHT22;1945;52.036;8.614;2023-09-19T15:44:18;19.60;1.00
3860;DHT22;1945;52.036;8.614;2023-09-19T15:46:47;19.50;99.90
3860;DHT22;1945;52.036;8.614;2023-09-19T15:49:14;19.50;99.90
3860;DHT22;1945;52.036;8.614;2023-09-19T15:51:42;19.50;99.90
3860;DHT22;1945;52.036;8.614;2023-09-19T15:54:10;19.50;99.90
3860;DHT22;1945;52.036;8.614;2023-09-19T15:56:39;19.50;99.90
3860;DHT22;1945;52.036;8.614;2023-09-19T15:59:07;19.40;58.80
3860;DHT22;1945;52.036;8.614;2023-09-19T16:01:35;19.50;99.90
3860;DHT22;1945;52.036;8.614;2023-09-19T16:04:03;19.50;99.90
3860;DHT22;1945;52.036;8.614;2023-09-19T16:06:30;19.40;99.90
3860;DHT22;1945;52.036;8.614;2023-09-19T16:09:04;19.40;99.90
3860;DHT22;1945;52.036;8.614;2023-09-19T16:11:33;19.30;99.90
3860;DHT22;1945;52.036;8.614;2023-09-19T16:14:06;19.30;99.90
3860;DHT22;1945;52.036;8.614;2023-09-19T16:16:36;19.30;99.90
3860;DHT22;1945;52.036;8.614;2023-09-19T16:19:10;19.20;99.90
3860;DHT22;1945;52.036;8.614;2023-09-19T16:21:39;19.20;76.20
3860;DHT22;1945;52.036;8.614;2023-09-19T16:24:08;19.10;99.90
3860;DHT22;1945;52.036;8.614;2023-09-19T16:26:36;19.10;99.90
3860;DHT22;1945;52.036;8.614;2023-09-19T16:29:03;19.10;99.90
3860;DHT22;1945;52.036;8.614;2023-09-19T16:31:31;19.00;99.90
3860;DHT22;1945;52.036;8.614;2023-09-19T16:34:00;19.00;99.90
3860;DHT22;1945;52.036;8.614;2023-09-19T16:36:30;18.90;99.90